Time;durP1;ratioP1;P1;durP2;ratioP2;P2;SDS_P1;SDS_P2;PMS_P1;PMS_P2;Temp;Humidity;BMP_temperature;BMP_pressure;BME280_temperature;BME280_humidity;BME280_pressure;Samples;Min_cycle;Max_cycle;Signal;HPM_P1;HPM_P2
2022/08/31 00:04:11;;;;;;;5.72;1.33;;;15.60;99.90;;;;;;4938236;29;20502;-70
2022/08/31 00:06:37;;;;;;;3.63;1.25;;;15.60;99.90;;;;;;4955997;29;20055;-71
2022/08/31 00:09:05;;;;;;;9.02;1.90;;;15.50;99.90;;;;;;4954720;29;20053;-71
2022/08/31 00:11:34;;;;;;;7.75;1.23;;;15.50;99.90;;;;;;4955126;29;20074;-71
2022/08/31 00:14:04;;;;;;;8.60;1.30;;;15.50;99.90;;;;;;4937082;29;20051;-70
2022/08/31 00:16:32;;;;;;;4.03;1.23;;;15.40;99.90;;;;;;4954599;29;20062;-70
2022/08/31 00:18:58;;;;;;;5.57;1.17;;;15.50;99.90;;;;;;4953733;29;20043;-71
2022/08/31 00:21:25;;;;;;;5.97;1.48;;;15.50;99.90;;;;;;4955942;29;20126;-70
2022/08/31 00:23:52;;;;;;;10.18;1.60;;;15.40;99.90;;;;;;4954721;29;20111;-70
2022/08/31 00:26:19;;;;;;;6.90;1.10;;;15.40;99.90;;;;;;4955813;29;20066;-71
2022/08/31 00:28:45;;;;;;;7.45;1.20;;;15.40;99.90;;;;;;4954489;28;20082;-72
2022/08/31 00:31:12;;;;;;;7.27;1.30;;;15.40;99.90;;;;;;4955541;29;20077;-71
2022/08/31 00:33:38;;;;;;;7.28;1.40;;;15.40;99.90;;;;;;4955362;29;20047;-69
2022/08/31 00:36:05;;;;;;;6.95;1.40;;;15.40;99.90;;;;;;4954721;28;20054;-70
2022/08/31 00:38:32;;;;;;;6.93;1.05;;;15.30;99.90;;;;;;4955180;29;20043;-72
2022/08/31 00:40:58;;;;;;;5.88;1.38;;;15.30;99.90;;;;;;4955211;29;20051;-71
2022/08/31 00:43:42;;;;;;;6.57;1.48;;;15.30;99.90;;;;;;4937242;29;20077;-72
2022/08/31 00:46:10;;;;;;;5.80;1.30;;;15.30;99.90;;;;;;4954338;28;20113;-71
2022/08/31 00:48:41;;;;;;;6.80;1.10;;;15.30;99.90;;;;;;4937735;29;20070;-71
2022/08/31 00:51:07;;;;;;;5.82;1.45;;;15.30;99.90;;;;;;4954894;29;20086;-72
2022/08/31 00:53:33;;;;;;;4.72;1.00;;;15.20;99.90;;;;;;4955590;29;20095;-70
2022/08/31 00:55:59;;;;;;;3.72;1.30;;;15.20;99.90;;;;;;4964829;28;20057;-78
2022/08/31 00:58:25;;;;;;;4.00;1.17;;;15.10;99.90;;;;;;4957678;29;20163;-69
2022/08/31 01:00:51;;;;;;;6.35;1.15;;;15.10;99.90;;;;;;4955272;29;20190;-72
2022/08/31 01:03:19;;;;;;;4.85;1.25;;;15.10;99.90;;;;;;4937650;29;20185;-69
2022/08/31 01:05:45;;;;;;;6.80;1.17;;;15.00;99.90;;;;;;4955016;29;20051;-71
2022/08/31 01:08:12;;;;;;;4.30;1.20;;;15.00;99.90;;;;;;4952894;29;20051;-70
2022/08/31 01:10:42;;;;;;;6.22;0.95;;;15.00;99.90;;;;;;4937838;29;20416;-72
2022/08/31 01:13:11;;;;;;;3.97;1.10;;;15.00;99.90;;;;;;4935153;29;20057;-77
2022/08/31 01:15:41;;;;;;;8.60;1.35;;;14.90;99.90;;;;;;4955197;29;20380;-72
2022/08/31 01:18:07;;;;;;;3.35;0.80;;;14.90;99.70;;;;;;4953961;29;20487;-71
2022/08/31 01:21:02;;;;;;;5.78;1.67;;;14.90;99.80;;;;;;4935508;29;20051;-71
2022/08/31 01:23:33;;;;;;;8.05;1.10;;;14.90;99.40;;;;;;4934463;29;20374;-70
2022/08/31 01:26:01;;;;;;;5.30;1.10;;;14.80;99.50;;;;;;4918181;29;20075;-70
2022/08/31 01:28:28;;;;;;;5.78;1.75;;;14.80;99.40;;;;;;4952958;29;20043;-71
2022/08/31 01:31:09;;;;;;;4.97;1.30;;;14.80;99.10;;;;;;4954264;29;20471;-71
2022/08/31 01:33:37;;;;;;;8.35;1.10;;;14.80;98.90;;;;;;4938868;29;20484;-71
2022/08/31 01:36:05;;;;;;;8.75;1.77;;;14.80;98.70;;;;;;4953523;29;20117;-77
2022/08/31 01:38:33;;;;;;;16.15;5.13;;;14.70;99.00;;;;;;4953356;29;20061;-70
2022/08/31 01:41:01;;;;;;;8.38;1.58;;;14.60;98.80;;;;;;4920575;29;20086;-70
2022/08/31 01:43:28;;;;;;;9.13;1.40;;;14.60;99.00;;;;;;4934875;29;20047;-71
2022/08/31 01:45:54;;;;;;;7.13;1.15;;;14.60;98.60;;;;;;4953997;29;20106;-70
2022/08/31 01:48:21;;;;;;;4.72;0.85;;;14.50;98.90;;;;;;4953089;29;20051;-71
2022/08/31 01:50:46;;;;;;;4.53;0.70;;;14.50;98.50;;;;;;4936814;29;20119;-70
2022/08/31 01:53:12;;;;;;;4.43;0.75;;;14.40;98.50;;;;;;4934801;29;20083;-72
2022/08/31 01:55:39;;;;;;;2.65;0.55;;;14.40;98.50;;;;;;4953651;29;20039;-71
2022/08/31 01:58:04;;;;;;;2.08;0.68;;;14.30;98.20;;;;;;4952103;29;20106;-77
2022/08/31 02:00:30;;;;;;;3.55;0.70;;;14.30;97.80;;;;;;4936113;29;20051;-71
2022/08/31 02:02:59;;;;;;;5.47;0.85;;;14.30;98.00;;;;;;4953017;29;20062;-72
2022/08/31 02:05:24;;;;;;;2.58;0.70;;;14.30;97.80;;;;;;4952307;28;20093;-71
2022/08/31 02:07:50;;;;;;;1.63;0.50;;;14.30;97.70;;;;;;4953074;28;20129;-74
2022/08/31 02:10:16;;;;;;;2.63;0.60;;;14.20;97.70;;;;;;4953025;29;20163;-71
2022/08/31 02:12:42;;;;;;;4.00;0.50;;;14.30;97.70;;;;;;4953292;29;20496;-72
2022/08/31 02:15:09;;;;;;;4.88;0.60;;;14.20;97.70;;;;;;4918959;29;20055;-76
2022/08/31 02:17:34;;;;;;;3.55;0.63;;;14.10;97.80;;;;;;4953790;29;20054;-72
2022/08/31 02:20:00;;;;;;;2.30;0.60;;;14.10;97.80;;;;;;4952483;28;20053;-69
2022/08/31 02:22:26;;;;;;;2.65;0.50;;;14.10;97.50;;;;;;4952902;29;20062;-71
2022/08/31 02:24:51;;;;;;;6.63;0.60;;;14.10;97.30;;;;;;4952161;29;20051;-71
2022/08/31 02:27:17;;;;;;;4.40;0.50;;;14.10;97.40;;;;;;4935709;29;20051;-71
2022/08/31 02:29:43;;;;;;;5.50;0.57;;;14.10;97.30;;;;;;4934571;29;20051;-70
2022/08/31 02:32:10;;;;;;;3.00;0.50;;;14.10;97.10;;;;;;4935457;29;20051;-78
2022/08/31 02:34:35;;;;;;;4.80;0.75;;;14.10;97.10;;;;;;4953007;29;20071;-71
2022/08/31 02:37:01;;;;;;;5.15;0.52;;;14.00;97.30;;;;;;4952949;28;20488;-76
2022/08/31 02:39:27;;;;;;;6.93;0.98;;;14.00;97.20;;;;;;4933979;29;20100;-70
2022/08/31 02:41:53;;;;;;;3.65;0.70;;;13.90;97.20;;;;;;4952844;29;20043;-70
2022/08/31 02:44:18;;;;;;;2.83;0.65;;;14.00;97.00;;;;;;4934276;29;20126;-70
2022/08/31 02:46:44;;;;;;;3.42;0.50;;;13.90;97.10;;;;;;4936143;29;20051;-70
2022/08/31 02:49:10;;;;;;;3.63;0.70;;;13.90;97.30;;;;;;4952348;29;20402;-77
2022/08/31 02:51:39;;;;;;;3.72;0.63;;;13.80;97.10;;;;;;4935395;29;20047;-71
2022/08/31 02:54:05;;;;;;;3.95;0.50;;;13.90;97.20;;;;;;4952260;29;20078;-71
2022/08/31 02:56:31;;;;;;;10.80;0.65;;;13.80;97.30;;;;;;4935558;29;20134;-71
2022/08/31 02:59:00;;;;;;;3.42;0.60;;;13.80;97.40;;;;;;4951439;29;20130;-71
2022/08/31 03:01:25;;;;;;;3.72;0.50;;;13.70;97.50;;;;;;4918862;29;20122;-71
2022/08/31 03:03:52;;;;;;;3.78;0.60;;;13.70;97.60;;;;;;4952321;29;20491;-72
2022/08/31 03:06:19;;;;;;;3.63;0.63;;;13.60;97.70;;;;;;4952046;29;20503;-71
2022/08/31 03:08:45;;;;;;;;;;;13.60;97.70;;;;;;4952781;29;20082;-71
2022/08/31 03:11:11;;;;;;;6.93;0.70;;;13.50;98.10;;;;;;4952217;29;20398;-73
2022/08/31 03:13:38;;;;;;;3.13;0.70;;;13.50;98.00;;;;;;4951356;29;20098;-71
2022/08/31 03:16:04;;;;;;;;;;;13.40;98.20;;;;;;4935879;29;20070;-70
2022/08/31 03:18:30;;;;;;;2.00;0.60;;;13.40;98.50;;;;;;4918892;29;19938;-71
2022/08/31 03:20:55;;;;;;;2.88;0.90;;;13.30;98.50;;;;;;4923102;29;20134;-73
2022/08/31 03:23:21;;;;;;;3.45;0.60;;;13.30;98.50;;;;;;4954404;29;20377;-71
2022/08/31 03:25:47;;;;;;;5.68;0.82;;;13.20;98.60;;;;;;4939221;29;20051;-70
2022/08/31 03:28:13;;;;;;;4.10;0.75;;;13.20;98.80;;;;;;4955128;29;20043;-74
2022/08/31 03:30:40;;;;;;;5.00;0.80;;;13.10;98.80;;;;;;4938816;29;20176;-70
2022/08/31 03:33:06;;;;;;;5.43;0.75;;;13.10;98.90;;;;;;4939317;29;20063;-70
2022/08/31 03:35:32;;;;;;;7.05;0.73;;;13.00;99.10;;;;;;4954838;28;20049;-74
2022/08/31 03:37:58;;;;;;;5.35;0.70;;;13.00;99.30;;;;;;4955093;29;20043;-72
2022/08/31 03:40:24;;;;;;;7.63;0.90;;;12.90;99.80;;;;;;4955673;29;20448;-70
2022/08/31 03:42:49;;;;;;;3.92;0.80;;;12.90;99.60;;;;;;4955068;29;20062;-72
2022/08/31 03:45:15;;;;;;;2.97;0.70;;;12.80;99.90;;;;;;4954586;29;20059;-76
2022/08/31 03:47:41;;;;;;;4.13;0.70;;;12.80;99.90;;;;;;4956570;29;20464;-70
2022/08/31 03:50:09;;;;;;;3.15;0.60;;;12.70;99.90;;;;;;4955974;29;20494;-71
2022/08/31 03:52:36;;;;;;;2.15;0.60;;;12.70;99.90;;;;;;4948599;29;20054;-71
2022/08/31 03:55:02;;;;;;;2.13;0.57;;;12.70;99.90;;;;;;4945677;29;20047;-72
2022/08/31 03:57:28;;;;;;;2.35;0.63;;;12.70;99.90;;;;;;4938569;29;20499;-71
2022/08/31 03:59:56;;;;;;;3.78;0.82;;;12.60;99.90;;;;;;4954308;29;20055;-74
2022/08/31 04:02:23;;;;;;;3.90;0.90;;;12.50;99.90;;;;;;4955289;29;20098;-71
2022/08/31 04:04:50;;;;;;;5.47;1.10;;;12.50;99.90;;;;;;4955236;29;20392;-71
2022/08/31 04:07:17;;;;;;;2.58;1.00;;;12.50;99.90;;;;;;4955001;28;20125;-72
2022/08/31 04:09:44;;;;;;;8.25;0.90;;;12.50;99.90;;;;;;4955016;29;20061;-70
2022/08/31 04:12:10;;;;;;;4.25;0.90;;;12.40;99.90;;;;;;4956163;29;20131;-71
2022/08/31 04:14:35;;;;;;;3.80;0.80;;;12.40;99.90;;;;;;4936932;29;20134;-72
2022/08/31 04:17:01;;;;;;;4.82;0.93;;;12.40;99.90;;;;;;4938223;29;20050;-72
2022/08/31 04:19:27;;;;;;;3.63;0.77;;;12.30;99.90;;;;;;4954526;29;20053;-71
2022/08/31 04:21:52;;;;;;;6.32;0.90;;;12.30;99.90;;;;;;4954850;28;20070;-70
2022/08/31 04:24:18;;;;;;;5.90;1.17;;;12.30;99.90;;;;;;4937065;29;20488;-70
2022/08/31 04:26:44;;;;;;;4.55;1.00;;;12.20;99.90;;;;;;4938070;29;20055;-66
2022/08/31 04:29:10;;;;;;;5.40;1.13;;;12.20;99.90;;;;;;4953931;29;20151;-70
2022/08/31 04:31:36;;;;;;;5.70;1.33;;;12.20;99.90;;;;;;4933450;29;20052;-69
2022/08/31 04:34:03;;;;;;;3.63;0.93;;;12.10;99.90;;;;;;4935772;29;20401;-70
2022/08/31 04:36:29;;;;;;;;;;;12.10;99.90;;;;;;4935837;29;20051;-70
2022/08/31 04:38:58;;;;;;;6.40;1.33;;;12.10;99.90;;;;;;4949905;28;20046;-70
2022/08/31 04:41:25;;;;;;;4.95;0.90;;;12.10;99.90;;;;;;4939380;29;20047;-76
2022/08/31 04:43:53;;;;;;;4.63;1.13;;;12.10;99.90;;;;;;4954709;29;20074;-71
2022/08/31 04:46:21;;;;;;;3.97;1.10;;;12.00;99.90;;;;;;4955933;29;20061;-70
2022/08/31 04:48:47;;;;;;;4.20;1.08;;;12.00;99.90;;;;;;4959374;29;20046;-70
2022/08/31 04:51:21;;;;;;;5.07;1.50;;;11.90;99.90;;;;;;4956026;29;20126;-71
2022/08/31 04:53:47;;;;;;;9.20;1.25;;;12.00;99.90;;;;;;4937064;29;20395;-71
2022/08/31 04:56:22;;;;;;;5.28;1.42;;;11.90;99.90;;;;;;4955215;29;20106;-71
2022/08/31 04:58:51;;;;;;;5.25;1.20;;;11.90;99.90;;;;;;4953629;29;20086;-70
2022/08/31 05:01:22;;;;;;;8.20;1.30;;;11.90;99.90;;;;;;4953955;28;20067;-70
2022/08/31 05:03:52;;;;;;;4.10;1.20;;;11.90;99.90;;;;;;4937041;29;20452;-72
2022/08/31 05:06:24;;;;;;;6.13;1.52;;;11.90;99.90;;;;;;4937562;29;20042;-70
2022/08/31 05:08:55;;;;;;;6.22;1.30;;;11.90;99.90;;;;;;4936462;29;20138;-69
2022/08/31 05:11:22;;;;;;;4.90;1.05;;;11.90;99.90;;;;;;4922008;29;20616;-74
2022/08/31 05:13:48;;;;;;;5.47;1.50;;;11.90;99.90;;;;;;4935023;28;20497;-70
2022/08/31 05:16:15;;;;;;;5.47;1.40;;;11.90;99.90;;;;;;4937899;29;20137;-72
2022/08/31 05:18:43;;;;;;;4.20;1.10;;;11.90;99.90;;;;;;4952919;29;20043;-71
2022/08/31 05:21:13;;;;;;;;;;;11.90;99.90;;;;;;4955032;29;20051;-71
2022/08/31 05:23:39;;;;;;;5.28;1.42;;;11.90;99.90;;;;;;4936046;28;20338;-71
2022/08/31 05:26:07;;;;;;;10.70;1.80;;;11.90;99.90;;;;;;4953970;29;20065;-71
2022/08/31 05:28:34;;;;;;;6.90;1.42;;;11.90;99.90;;;;;;4935313;29;20063;-74
2022/08/31 05:31:00;;;;;;;5.07;1.45;;;11.90;99.90;;;;;;4937337;29;20054;-71
2022/08/31 05:33:27;;;;;;;4.88;1.40;;;11.90;99.90;;;;;;4954918;29;20117;-70
2022/08/31 05:35:52;;;;;;;;;;;11.90;99.90;;;;;;4955068;29;20130;-71
2022/08/31 05:38:18;;;;;;;4.50;1.40;;;11.90;99.90;;;;;;4936877;29;19922;-70
2022/08/31 05:40:51;;;;;;;8.35;2.05;;;12.00;99.90;;;;;;4954021;29;20047;-71
2022/08/31 05:43:17;;;;;;;5.43;1.73;;;12.00;99.90;;;;;;4935151;28;20055;-72
2022/08/31 05:45:43;;;;;;;6.22;1.67;;;12.00;99.90;;;;;;4935287;29;20480;-70
2022/08/31 05:48:09;;;;;;;7.75;2.10;;;12.00;99.90;;;;;;4935989;29;20448;-71
2022/08/31 05:50:36;;;;;;;6.03;1.63;;;12.00;99.90;;;;;;4953663;29;20068;-70
2022/08/31 05:53:02;;;;;;;;;;;12.00;99.90;;;;;;4921087;29;20054;-71
2022/08/31 05:55:29;;;;;;;8.45;1.80;;;12.10;99.90;;;;;;4936410;29;19961;-69
2022/08/31 05:57:54;;;;;;;7.05;1.75;;;12.10;99.90;;;;;;4935933;29;20543;-72
2022/08/31 06:00:20;;;;;;;7.35;1.70;;;12.20;99.90;;;;;;4937140;29;20115;-71
2022/08/31 06:02:46;;;;;;;8.65;1.90;;;12.20;99.90;;;;;;4934948;29;20078;-76
2022/08/31 06:05:12;;;;;;;8.10;1.77;;;12.40;99.90;;;;;;4952559;28;20043;-71
2022/08/31 06:07:37;;;;;;;5.80;1.77;;;12.40;99.90;;;;;;4919029;29;20063;-72
2022/08/31 06:10:04;;;;;;;4.93;1.67;;;12.50;99.90;;;;;;4952793;29;20043;-70
2022/08/31 06:12:30;;;;;;;4.50;1.60;;;12.60;99.90;;;;;;4954236;29;20377;-69
2022/08/31 06:14:56;;;;;;;9.20;1.73;;;12.70;99.90;;;;;;4952578;29;20397;-69
2022/08/31 06:17:23;;;;;;;12.07;1.85;;;12.80;99.90;;;;;;4953907;28;20122;-73
2022/08/31 06:19:50;;;;;;;7.50;2.00;;;13.00;99.90;;;;;;4953587;29;20052;-72
2022/08/31 06:22:17;;;;;;;6.40;2.00;;;13.10;99.90;;;;;;4953181;28;20055;-70
2022/08/31 06:24:43;;;;;;;5.05;1.65;;;13.10;99.90;;;;;;4952585;29;20109;-72
2022/08/31 06:27:09;;;;;;;6.80;1.70;;;13.20;99.90;;;;;;4955003;28;20047;-71
2022/08/31 06:29:35;;;;;;;7.72;1.90;;;13.30;99.90;;;;;;4955210;29;20047;-77
2022/08/31 06:32:06;;;;;;;7.43;1.92;;;13.50;99.90;;;;;;4955637;29;20055;-70
2022/08/31 06:34:33;;;;;;;6.60;1.70;;;13.50;99.90;;;;;;4955124;29;20051;-71
2022/08/31 06:36:59;;;;;;;6.40;1.55;;;13.70;99.90;;;;;;4937172;29;20055;-70
2022/08/31 06:39:25;;;;;;;14.43;2.08;;;13.80;99.90;;;;;;4954079;29;20070;-72
2022/08/31 06:41:54;;;;;;;7.75;1.70;;;13.90;99.90;;;;;;4952691;29;20051;-71
2022/08/31 06:44:21;;;;;;;8.70;2.15;;;14.00;99.90;;;;;;4935437;29;20491;-71
2022/08/31 06:46:47;;;;;;;11.85;2.03;;;14.20;99.90;;;;;;4953037;29;20419;-71
2022/08/31 06:49:13;;;;;;;6.05;1.60;;;14.20;99.90;;;;;;4957175;29;20051;-72
2022/08/31 06:51:39;;;;;;;8.77;1.57;;;14.40;99.90;;;;;;4946980;29;20484;-79
2022/08/31 06:54:07;;;;;;;6.78;1.88;;;14.40;99.90;;;;;;4942355;29;20302;-72
2022/08/31 06:56:34;;;;;;;8.82;1.67;;;14.50;99.90;;;;;;4940914;29;20090;-72
2022/08/31 06:59:01;;;;;;;6.63;1.80;;;14.60;99.90;;;;;;4956503;29;21093;-71
2022/08/31 07:01:28;;;;;;;11.43;1.70;;;14.60;99.90;;;;;;4939357;29;20078;-74
2022/08/31 07:03:56;;;;;;;7.47;1.48;;;14.70;99.90;;;;;;4939708;29;20138;-71
2022/08/31 07:06:27;;;;;;;4.35;1.58;;;14.80;99.90;;;;;;4939773;29;20046;-71
2022/08/31 07:08:57;;;;;;;7.28;2.25;;;14.90;99.90;;;;;;4956499;29;20070;-71
2022/08/31 07:11:32;;;;;;;8.43;1.70;;;15.00;99.90;;;;;;4939152;29;20050;-71
2022/08/31 07:13:57;;;;;;;6.68;1.40;;;15.10;99.90;;;;;;4938853;29;20102;-71
2022/08/31 07:16:25;;;;;;;7.47;2.20;;;15.20;99.90;;;;;;4955787;29;20083;-72
2022/08/31 07:18:53;;;;;;;5.88;1.67;;;15.20;99.90;;;;;;4955596;29;20130;-71
2022/08/31 07:21:29;;;;;;;3.92;1.00;;;15.30;99.90;;;;;;4939864;29;20183;-71
2022/08/31 07:23:58;;;;;;;8.95;1.70;;;15.40;99.90;;;;;;4956145;29;20043;-72
2022/08/31 07:26:31;;;;;;;7.70;1.70;;;15.40;99.90;;;;;;4956839;29;20498;-71
2022/08/31 07:28:58;;;;;;;6.82;1.40;;;15.50;99.90;;;;;;4938831;29;20058;-71
2022/08/31 07:31:26;;;;;;;;;;;15.60;99.90;;;;;;4960651;29;20503;-70
2022/08/31 07:33:57;;;;;;;4.65;1.50;;;15.60;99.90;;;;;;4942445;29;19929;-69
2022/08/31 07:36:24;;;;;;;5.97;1.63;;;15.70;99.90;;;;;;4961125;29;20050;-70
2022/08/31 07:44:21;;;;;;;4.25;1.30;;;15.80;99.90;;;;;;4952197;29;20043;-70
2022/08/31 07:46:47;;;;;;;7.45;1.75;;;15.90;99.90;;;;;;4959872;29;20055;-74
2022/08/31 07:49:14;;;;;;;5.82;1.42;;;15.90;99.90;;;;;;4926675;28;20158;-72
2022/08/31 07:51:44;;;;;;;6.18;2.35;;;16.00;99.90;;;;;;4960056;29;20055;-72
2022/08/31 07:54:12;;;;;;;8.73;1.75;;;16.00;99.90;;;;;;4941673;29;20125;-72
2022/08/31 07:56:40;;;;;;;5.32;1.58;;;16.10;99.90;;;;;;4942555;29;20396;-71
2022/08/31 07:59:06;;;;;;;7.03;2.00;;;16.10;99.90;;;;;;4959142;29;20077;-72
2022/08/31 08:01:36;;;;;;;6.55;1.58;;;16.10;99.90;;;;;;4957305;28;20488;-73
2022/08/31 08:04:05;;;;;;;5.82;1.73;;;16.10;99.90;;;;;;4954688;29;20070;-71
2022/08/31 08:06:31;;;;;;;9.13;1.95;;;16.20;99.90;;;;;;4936882;29;20044;-68
2022/08/31 08:09:05;;;;;;;3.85;1.33;;;16.30;99.90;;;;;;4954683;29;20055;-71
2022/08/31 08:11:35;;;;;;;7.10;1.50;;;16.30;99.90;;;;;;4939370;29;20050;-73
2022/08/31 08:14:05;;;;;;;8.27;1.45;;;16.40;99.90;;;;;;4921340;29;20059;-72
2022/08/31 08:16:32;;;;;;;6.90;1.38;;;16.40;99.90;;;;;;4955835;29;20492;-71
2022/08/31 08:18:59;;;;;;;7.95;1.35;;;16.50;99.90;;;;;;4938141;29;20123;-71
2022/08/31 08:21:25;;;;;;;4.78;1.40;;;16.60;99.90;;;;;;4955621;29;20484;-71
2022/08/31 08:23:51;;;;;;;9.60;1.65;;;16.60;99.90;;;;;;4922003;29;20050;-71
2022/08/31 08:26:18;;;;;;;5.97;1.10;;;16.80;99.90;;;;;;4954576;29;20035;-70
2022/08/31 08:28:43;;;;;;;5.50;0.77;;;16.90;99.90;;;;;;4953420;29;20054;-71
2022/08/31 08:31:21;;;;;;;7.10;1.00;;;17.00;99.90;;;;;;4954420;28;20047;-72
2022/08/31 08:33:49;;;;;;;4.32;0.80;;;17.10;99.90;;;;;;4921298;29;20542;-82
2022/08/31 08:36:17;;;;;;;7.63;1.00;;;17.20;99.90;;;;;;4955704;29;20040;-73
2022/08/31 08:38:46;;;;;;;4.93;0.85;;;17.30;99.90;;;;;;4936432;29;20049;-72
2022/08/31 08:41:18;;;;;;;14.25;1.00;;;17.40;98.90;;;;;;4936681;29;20187;-72
2022/08/31 08:43:50;;;;;;;6.05;0.80;;;17.40;99.50;;;;;;4917915;29;20051;-72
2022/08/31 08:46:20;;;;;;;6.20;0.93;;;17.50;98.80;;;;;;4942101;28;20164;-71
2022/08/31 08:48:49;;;;;;;13.10;1.45;;;17.60;98.70;;;;;;4943569;29;20051;-71
2022/08/31 08:51:18;;;;;;;8.38;0.88;;;17.60;98.40;;;;;;4955451;29;20047;-72
2022/08/31 08:53:48;;;;;;;3.45;0.82;;;17.70;98.10;;;;;;4953153;29;20369;-73
2022/08/31 08:56:14;;;;;;;10.43;1.08;;;17.80;98.70;;;;;;4954836;29;20569;-72
2022/08/31 08:58:44;;;;;;;7.82;0.90;;;17.80;98.30;;;;;;4954428;28;20142;-75
2022/08/31 09:01:20;;;;;;;3.55;0.90;;;17.90;98.50;;;;;;4933998;29;20599;-71
2022/08/31 09:03:55;;;;;;;7.03;0.80;;;17.90;98.60;;;;;;4933984;29;20539;-72
2022/08/31 09:06:39;;;;;;;10.18;1.17;;;18.00;98.40;;;;;;4934804;29;20059;-74
2022/08/31 09:09:31;;;;;;;5.72;0.93;;;18.10;97.80;;;;;;4928243;29;20059;-74
2022/08/31 09:12:24;;;;;;;5.72;0.85;;;18.20;97.60;;;;;;4934495;29;20051;-72
2022/08/31 09:15:17;;;;;;;4.57;0.90;;;18.20;97.70;;;;;;4934545;29;20374;-80
2022/08/31 09:18:00;;;;;;;7.93;1.20;;;18.30;97.20;;;;;;4934927;29;20056;-73
2022/08/31 09:20:27;;;;;;;5.88;0.77;;;18.30;96.70;;;;;;4935744;29;20079;-72
2022/08/31 09:22:56;;;;;;;3.30;0.73;;;18.30;96.80;;;;;;4935334;29;20465;-77
2022/08/31 09:25:31;;;;;;;4.05;0.88;;;18.40;96.60;;;;;;4918885;29;20047;-74
2022/08/31 09:28:00;;;;;;;5.38;0.70;;;18.50;96.50;;;;;;4927698;29;20048;-69
2022/08/31 09:30:49;;;;;;;5.70;0.98;;;;;;;;;;4938464;29;20052;-75
2022/08/31 09:33:33;;;;;;;4.20;0.80;;;18.70;95.10;;;;;;4935202;29;20060;-70
2022/08/31 09:36:15;;;;;;;10.05;0.90;;;18.70;95.50;;;;;;4934337;29;20051;-71
2022/08/31 09:38:45;;;;;;;3.85;0.60;;;18.80;95.00;;;;;;4935951;29;20086;-74
2022/08/31 09:41:37;;;;;;;6.82;0.77;;;18.80;94.70;;;;;;4935514;29;20047;-72
2022/08/31 09:44:33;;;;;;;4.30;0.70;;;18.80;94.30;;;;;;4928374;29;20424;-74
2022/08/31 09:47:04;;;;;;;5.78;0.98;;;18.90;94.10;;;;;;4941157;29;20094;-71
2022/08/31 09:49:36;;;;;;;6.32;1.10;;;18.90;94.30;;;;;;4948257;29;20142;-69
2022/08/31 09:55:20;;;;;;;4.57;1.00;;;19.10;93.50;;;;;;4934353;29;20056;-72
2022/08/31 09:57:51;;;;;;;4.80;0.70;;;19.10;93.20;;;;;;4934782;29;20122;-80
2022/08/31 10:00:33;;;;;;;3.33;0.50;;;19.20;93.30;;;;;;4932894;29;20138;-71
2022/08/31 10:03:19;;;;;;;5.40;0.60;;;19.20;93.00;;;;;;4934295;29;20056;-72
2022/08/31 10:05:45;;;;;;;7.10;1.20;;;19.30;93.20;;;;;;4934487;29;20175;-74
2022/08/31 10:08:56;;;;;;;5.45;1.00;;;19.40;93.20;;;;;;4931797;29;20491;-75
2022/08/31 10:11:25;;;;;;;5.78;0.80;;;19.50;92.50;;;;;;4934961;29;20055;-72
2022/08/31 10:13:59;;;;;;;3.70;0.60;;;19.50;92.20;;;;;;4933569;29;20067;-71
2022/08/31 10:16:36;;;;;;;6.60;0.70;;;19.60;92.40;;;;;;4934665;29;20051;-72
2022/08/31 10:19:12;;;;;;;7.55;0.70;;;19.70;90.80;;;;;;4933856;29;20047;-69
2022/08/31 10:21:53;;;;;;;2.72;0.77;;;19.70;91.30;;;;;;4934547;29;20043;-73
2022/08/31 10:24:43;;;;;;;5.35;0.55;;;19.70;91.60;;;;;;4933445;29;20043;-72
2022/08/31 10:27:19;;;;;;;2.83;0.70;;;19.80;91.90;;;;;;4934156;29;20051;-73
2022/08/31 10:29:56;;;;;;;3.17;0.80;;;19.90;91.30;;;;;;4933119;29;20052;-72
2022/08/31 10:32:34;;;;;;;6.13;0.68;;;19.90;90.00;;;;;;4935005;29;20284;-71
2022/08/31 10:35:15;;;;;;;3.10;0.70;;;20.00;90.70;;;;;;4934243;29;20055;-73
2022/08/31 10:37:59;;;;;;;3.20;0.68;;;19.90;90.30;;;;;;4917566;29;20054;-72
2022/08/31 10:40:30;;;;;;;6.18;0.70;;;20.00;90.60;;;;;;4936130;29;20047;-72
2022/08/31 10:43:16;;;;;;;4.22;0.80;;;20.00;90.80;;;;;;4930662;28;20040;-79
2022/08/31 10:45:47;;;;;;;4.38;0.80;;;20.10;90.60;;;;;;4934720;29;20059;-73
2022/08/31 10:48:16;;;;;;;6.95;0.85;;;20.10;90.50;;;;;;4933954;29;20145;-73
2022/08/31 10:51:07;;;;;;;5.55;0.93;;;20.10;90.50;;;;;;4934223;29;20063;-70
2022/08/31 10:53:55;;;;;;;4.88;1.02;;;20.10;90.40;;;;;;4933447;29;20058;-71
2022/08/31 10:56:43;;;;;;;7.93;0.90;;;20.20;90.30;;;;;;4930819;29;20079;-73
2022/08/31 10:59:20;;;;;;;7.93;0.70;;;20.20;90.30;;;;;;4932783;28;20056;-75
2022/08/31 11:02:18;;;;;;;;;;;20.30;90.10;;;;;;4933166;29;20139;-71
2022/08/31 11:04:58;;;;;;;4.78;0.82;;;20.40;90.20;;;;;;4910948;29;19923;-71
2022/08/31 11:07:44;;;;;;;4.40;0.82;;;20.40;89.90;;;;;;4933224;29;20075;-73
2022/08/31 11:10:32;;;;;;;4.63;0.60;;;20.50;89.80;;;;;;4923540;29;20060;-71
2022/08/31 11:13:04;;;;;;;3.50;0.68;;;20.60;88.70;;;;;;4932666;29;20440;-71
2022/08/31 11:15:53;;;;;;;4.47;0.82;;;20.60;86.60;;;;;;4933922;29;20047;-70
2022/08/31 11:18:53;;;;;;;5.40;0.80;;;20.70;85.40;;;;;;4933114;29;20391;-70
2022/08/31 11:21:34;;;;;;;7.10;0.80;;;20.70;87.10;;;;;;4917134;29;20485;-71
2022/08/31 11:24:33;;;;;;;3.95;0.70;;;20.80;87.00;;;;;;4931257;29;20047;-71
2022/08/31 11:27:10;;;;;;;3.35;0.88;;;20.90;85.80;;;;;;4932155;29;20132;-71
2022/08/31 11:29:55;;;;;;;3.60;0.77;;;20.90;83.70;;;;;;4931788;29;20114;-72
2022/08/31 11:32:46;;;;;;;8.48;0.85;;;20.80;85.20;;;;;;4933869;29;20257;-71
2022/08/31 11:35:14;;;;;;;6.70;1.02;;;20.90;86.40;;;;;;4933307;29;20488;-72
2022/08/31 11:37:51;;;;;;;5.05;0.60;;;20.90;84.50;;;;;;4933573;29;20056;-71
2022/08/31 11:40:42;;;;;;;7.30;0.73;;;20.90;85.10;;;;;;4932231;29;20158;-72
2022/08/31 11:43:35;;;;;;;7.50;0.65;;;21.00;84.00;;;;;;4934957;29;20054;-71
2022/08/31 11:46:25;;;;;;;7.45;0.70;;;21.10;83.80;;;;;;4937403;29;20123;-71
2022/08/31 11:48:52;;;;;;;5.30;0.90;;;21.10;84.30;;;;;;4936137;29;20048;-71
2022/08/31 11:51:44;;;;;;;;;;;21.20;83.70;;;;;;4938606;29;20179;-72
2022/08/31 11:54:25;;;;;;;5.07;0.75;;;21.10;83.30;;;;;;4935197;29;19930;-75
2022/08/31 11:56:55;;;;;;;22.73;1.73;;;21.20;83.20;;;;;;4937365;29;20077;-72
2022/08/31 11:59:28;;;;;;;7.38;0.70;;;21.20;83.10;;;;;;4936441;29;20469;-71
2022/08/31 12:01:59;;;;;;;5.85;0.70;;;21.20;82.90;;;;;;4919680;29;20470;-71
2022/08/31 12:04:45;;;;;;;4.82;0.80;;;21.30;82.00;;;;;;4917885;29;20147;-71
2022/08/31 12:07:15;;;;;;;5.47;0.73;;;21.30;82.00;;;;;;4917899;29;20056;-71
2022/08/31 12:10:05;;;;;;;5.78;0.70;;;21.40;80.40;;;;;;4917609;29;20292;-74
2022/08/31 12:12:50;;;;;;;3.13;0.70;;;21.40;80.00;;;;;;4918578;29;20536;-72
2022/08/31 12:15:51;;;;;;;5.25;0.88;;;21.50;81.60;;;;;;4900635;29;20139;-71
2022/08/31 12:18:37;;;;;;;4.82;0.77;;;21.50;82.60;;;;;;4864900;29;20056;-72
2022/08/31 12:24:32;;;;;;;5.68;0.75;;;21.60;79.60;;;;;;4915969;29;20052;-73
2022/08/31 12:26:58;;;;;;;4.57;0.70;;;21.50;79.60;;;;;;4917920;29;20051;-76
2022/08/31 12:29:35;;;;;;;4.63;0.90;;;21.60;79.60;;;;;;4916907;29;20056;-73
2022/08/31 12:32:13;;;;;;;9.20;1.00;;;21.60;80.70;;;;;;4917681;29;20320;-72
2022/08/31 12:35:14;;;;;;;4.50;1.00;;;21.70;80.80;;;;;;4917632;29;20448;-73
2022/08/31 12:37:40;;;;;;;4.70;1.00;;;21.70;78.50;;;;;;4917945;29;20107;-73
2022/08/31 12:40:21;;;;;;;6.93;1.00;;;21.80;79.70;;;;;;4917139;29;20134;-71
2022/08/31 12:42:55;;;;;;;5.80;0.98;;;21.80;80.30;;;;;;4916801;29;20116;-77
2022/08/31 12:45:56;;;;;;;3.17;1.02;;;21.80;78.80;;;;;;4915720;29;20059;-73
2022/08/31 12:48:43;;;;;;;6.97;1.00;;;21.90;79.50;;;;;;4902087;29;20064;-72
2022/08/31 12:51:53;;;;;;;12.57;1.13;;;21.80;79.40;;;;;;4923091;29;20052;-75
2022/08/31 12:54:37;;;;;;;4.45;0.85;;;21.90;78.90;;;;;;4916423;29;20060;-72
2022/08/31 12:57:29;;;;;;;6.28;0.77;;;22.00;79.30;;;;;;4917757;29;20121;-70
2022/08/31 13:00:18;;;;;;;5.10;0.80;;;22.10;78.10;;;;;;4919650;29;20431;-72
2022/08/31 13:02:48;;;;;;;5.45;0.77;;;22.00;78.30;;;;;;4936084;29;20074;-72
2022/08/31 13:05:33;;;;;;;3.83;0.80;;;21.80;77.70;;;;;;4936378;29;20555;-73
2022/08/31 13:08:00;;;;;;;3.35;0.73;;;21.90;76.40;;;;;;4950128;28;20225;-72
2022/08/31 13:10:28;;;;;;;6.75;0.95;;;22.00;77.10;;;;;;4936086;29;20135;-75
2022/08/31 13:13:09;;;;;;;8.25;0.70;;;22.00;76.20;;;;;;4935552;29;20131;-72
2022/08/31 13:15:36;;;;;;;5.57;0.65;;;22.00;76.90;;;;;;4919122;29;20102;-71
2022/08/31 13:18:09;;;;;;;9.13;0.88;;;22.00;74.50;;;;;;4934617;28;20106;-71
2022/08/31 13:20:41;;;;;;;6.50;0.75;;;22.10;76.20;;;;;;4934688;29;20500;-72
2022/08/31 13:23:10;;;;;;;4.78;1.10;;;22.10;75.00;;;;;;4934705;29;20492;-74
2022/08/31 13:25:36;;;;;;;3.45;0.70;;;22.10;72.80;;;;;;4934130;29;20095;-72